Viborg, SD

12:01 PM CST on December 02, 2016 (GMT -0600)
Turkey Ridge | | Change Station

Elev 1644 ft 43.26 °N, 97.36 °W | Updated 1 minute ago

Overcast
Overcast
31.1 °F
Feels Like 31 °F
N
2.0
Wind Variable Wind from NNE
Gusts 6.0 mph

Today
High -- | Low -- °F
--% Chance of Precip.
Yesterday
High -- | Low -- °F
Precip. -- in
Pressure 30.28 in
Visibility 10.0 miles
Clouds Scattered Clouds 1400 ft
Mostly Cloudy 2000 ft
Overcast 2700 ft
Windchill 31 °F
Dew Point 30 °F
Humidity 95%
Rainfall 0.00 in
Snow Depth Not available.
7:42 AM 4:53 PM
Waxing Crescent, 9% visible
METAR KYKN 021755Z AUTO 32008KT 10SM SCT014 BKN020 OVC027 02/M02 A3028 RMK AO1 10020 20000 52017
Pressure 30.28 in
Visibility 10.0 miles
Clouds Scattered Clouds 1400 ft
Mostly Cloudy 2000 ft
Overcast 2700 ft
Windchill 31 °F
Dew Point 30 °F
Humidity 95%
Rainfall 0.00 in
Snow Depth Not available.
7:42 AM 4:53 PM
Waxing Crescent, 9% visible
METAR KYKN 021755Z AUTO 32008KT 10SM SCT014 BKN020 OVC027 02/M02 A3028 RMK AO1 10020 20000 52017

10-Day Weather Forecast

Almanac

Astronomy

Dec. 02, 2016 Rise Set
Actual Time
Civil Twilight
Nautical Twilight
Astronomical Twilight
Moon
Length of Visible Light
Length of Day
Tomorrow will be .
, % of the Moon is Illuminated

Today's Extremes

State Highs State Lows

Community

WunderPhotos

Upload Photos

1,955,333 photos uploaded!

WunderBlog® & News

Nearby

Air Quality

  Air Quality AQ Index Pollutant
Not available.

Snow Depth

Station Depth Elevation

Earthquake Activity

City Distance Mag. Time & Date
Minimum magnitude displayed is 2.5.

Coastal Water Temperatures

Place Temperature

Stations

Nearby Weather Stations

Station Location Temp. Windchill Dew Point Humidity Wind Precip. Elev Updated Type
                   

Watches & Warnings

There are currently no watches in effect.